Armington, Montana
Current Conditions -  °F | °C
As of 10:56 AM on Friday 31 Oct 2014 (Local Time) from KGFA Reporting Station
Clear Clear  
Wind Chill: 42°   Ceiling: Unl
Heat Index: 42°   Visibility: 10mi
Dew Point: 36°   Wind: 2mph
Humidity: 79%   Direction: 40°NE
Pressure: 29.8"   Gusts: NA
Location:  47.3298°N, 110.893°W
Report Text: KGFA 311656Z AUTO 04002KT 10SM CLR 06/02 A2980 RMK AO2 SLP111 T00560022
Loading
Personal Weather Stations






























Interactive Weather Map
Tropical Storm Tracking
New forecast layout! Learn more

10-Day Weather Forecast

Advertisements
Track Severe Weather on mobile